createdAt,value
2022-09-28T00:01:14.369Z,6.57
2022-09-28T00:03:41.522Z,6.32
2022-09-28T00:06:10.854Z,6.10
2022-09-28T00:08:38.460Z,6.22
2022-09-28T00:11:07.160Z,6.25
2022-09-28T00:13:35.305Z,5.78
2022-09-28T00:16:07.048Z,5.82
2022-09-28T00:18:35.496Z,6.25
2022-09-28T00:21:22.365Z,5.47
2022-09-28T00:24:11.837Z,4.80
2022-09-28T00:26:50.143Z,3.67
2022-09-28T00:29:22.585Z,4.63
2022-09-28T00:31:54.381Z,3.90
2022-09-28T00:34:21.405Z,3.85
2022-09-28T00:36:48.448Z,3.63
2022-09-28T00:39:17.037Z,4.10
2022-09-28T00:41:46.397Z,3.58
2022-09-28T00:44:25.738Z,3.50
2022-09-28T00:58:53.239Z,3.13
2022-09-28T01:01:20.737Z,3.08
2022-09-28T01:03:48.874Z,3.50
2022-09-28T01:06:20.644Z,3.20
2022-09-28T01:08:51.503Z,3.42
2022-09-28T01:11:19.904Z,3.60
2022-09-28T01:13:50.261Z,3.50
2022-09-28T01:16:42.651Z,3.88
2022-09-28T01:19:25.385Z,3.95
2022-09-28T01:22:14.637Z,4.45
2022-09-28T01:24:54.578Z,4.75
2022-09-28T01:27:28.178Z,4.45
2022-09-28T01:30:11.940Z,5.20
2022-09-28T01:32:54.641Z,5.57
2022-09-28T01:35:31.881Z,5.20
2022-09-28T01:38:26.804Z,5.45
2022-09-28T01:40:55.709Z,4.97
2022-09-28T01:43:28.191Z,4.60
2022-09-28T01:45:58.293Z,4.53
2022-09-28T01:48:41.242Z,4.10
2022-09-28T01:51:13.649Z,3.70
2022-09-28T01:53:46.812Z,4.20
2022-09-28T01:56:27.397Z,3.22
2022-09-28T01:59:10.864Z,3.40
2022-09-28T02:01:43.327Z,3.20
2022-09-28T02:04:17.318Z,3.20
2022-09-28T02:06:58.719Z,3.33
2022-09-28T02:09:34.130Z,4.10
2022-09-28T02:12:26.032Z,4.40
2022-09-28T02:14:59.326Z,4.65
2022-09-28T02:17:26.684Z,4.95
2022-09-28T02:19:53.592Z,5.38
2022-09-28T02:22:26.181Z,6.63
2022-09-28T02:24:53.856Z,6.15
2022-09-28T02:27:39.887Z,6.88
2022-09-28T02:30:08.269Z,6.55
2022-09-28T02:32:40.895Z,6.28
2022-09-28T02:35:17.795Z,6.55
2022-09-28T02:37:46.026Z,6.18
2022-09-28T02:40:30.375Z,6.50
2022-09-28T02:43:32.875Z,6.28
2022-09-28T02:46:17.825Z,6.22
2022-09-28T02:49:21.535Z,5.90
2022-09-28T02:52:27.728Z,5.72
2022-09-28T02:54:54.684Z,5.93
2022-09-28T02:57:40.239Z,5.95
2022-09-28T03:00:12.301Z,5.88
2022-09-28T03:02:54.875Z,5.82
2022-09-28T03:05:41.568Z,5.85
2022-09-28T03:08:35.560Z,6.70
2022-09-28T03:11:09.694Z,6.35
2022-09-28T03:13:37.734Z,6.22
2022-09-28T03:16:13.414Z,6.70
2022-09-28T03:18:42.198Z,6.15
2022-09-28T03:21:12.008Z,6.88
2022-09-28T03:23:39.449Z,7.53
2022-09-28T03:26:08.947Z,7.60
2022-09-28T03:28:36.593Z,7.55
2022-09-28T03:31:04.796Z,8.15
2022-09-28T03:33:32.367Z,8.25
2022-09-28T03:35:59.265Z,8.43
2022-09-28T03:38:26.453Z,8.95
2022-09-28T03:40:55.183Z,8.60
2022-09-28T03:43:23.320Z,8.60
2022-09-28T03:45:58.567Z,8.70
2022-09-28T03:48:32.113Z,8.32
2022-09-28T03:51:05.450Z,8.02
2022-09-28T03:53:33.565Z,8.57
2022-09-28T03:56:06.642Z,7.72
2022-09-28T03:58:34.368Z,7.63
2022-09-28T04:01:04.412Z,7.72
2022-09-28T04:03:31.662Z,8.23
2022-09-28T04:05:58.758Z,8.40
2022-09-28T04:08:25.857Z,6.97
2022-09-28T04:10:57.519Z,7.18
2022-09-28T04:13:25.305Z,6.82
2022-09-28T04:15:54.476Z,6.93
2022-09-28T04:18:21.985Z,6.20
2022-09-28T04:21:10.306Z,6.70
2022-09-28T04:23:41.753Z,5.80
2022-09-28T04:26:17.501Z,6.28
2022-09-28T04:29:06.592Z,6.00
2022-09-28T04:31:46.009Z,4.85
2022-09-28T04:34:17.503Z,4.95
2022-09-28T04:36:45.603Z,5.10
2022-09-28T04:39:19.110Z,5.18
2022-09-28T04:41:49.821Z,5.10
2022-09-28T04:44:16.986Z,5.25
2022-09-28T04:46:46.293Z,5.00
2022-09-28T04:49:28.254Z,4.78
2022-09-28T04:52:18.636Z,4.65
2022-09-28T04:54:48.875Z,4.10
2022-09-28T04:57:16.993Z,4.75
2022-09-28T04:59:44.072Z,4.50
2022-09-28T05:02:12.627Z,5.35
2022-09-28T05:04:39.450Z,4.80
2022-09-28T05:07:17.124Z,4.60
2022-09-28T05:09:44.131Z,5.57
2022-09-28T05:12:11.200Z,6.65
2022-09-28T05:14:38.859Z,6.88
2022-09-28T05:17:06.117Z,6.38
2022-09-28T05:19:51.618Z,5.07
2022-09-28T05:22:18.513Z,5.82
2022-09-28T05:24:47.267Z,5.35
2022-09-28T05:27:14.840Z,5.13
2022-09-28T05:29:45.388Z,4.63
2022-09-28T05:32:18.818Z,4.47
2022-09-28T05:35:06.449Z,4.35
2022-09-28T05:37:42.865Z,3.55
2022-09-28T05:40:11.094Z,4.07
2022-09-28T05:42:41.118Z,3.78
2022-09-28T05:45:10.095Z,3.45
2022-09-28T05:47:40.452Z,3.42
2022-09-28T05:50:11.592Z,3.30
2022-09-28T05:52:39.198Z,3.28
2022-09-28T05:55:07.878Z,3.10
2022-09-28T05:57:35.644Z,2.83
2022-09-28T06:00:09.911Z,3.03
2022-09-28T06:02:39.747Z,2.65
2022-09-28T06:05:09.477Z,2.40
2022-09-28T06:07:36.621Z,2.38
2022-09-28T06:10:04.425Z,2.28
2022-09-28T06:12:42.245Z,2.20
2022-09-28T06:15:15.381Z,2.33
2022-09-28T06:17:43.983Z,2.42
2022-09-28T06:20:49.643Z,1.95
2022-09-28T06:23:17.916Z,2.50
2022-09-28T06:25:44.945Z,2.67
2022-09-28T06:28:14.290Z,2.38
2022-09-28T06:30:43.238Z,2.25
2022-09-28T06:33:15.045Z,2.80
2022-09-28T06:35:42.514Z,2.67
2022-09-28T06:38:10.210Z,2.63
2022-09-28T06:40:38.608Z,2.70
2022-09-28T06:43:17.232Z,2.85
2022-09-28T06:46:03.439Z,3.25
2022-09-28T06:48:49.983Z,4.28
2022-09-28T06:51:33.432Z,4.93
2022-09-28T06:54:25.689Z,4.72
2022-09-28T06:57:07.640Z,3.88
2022-09-28T06:59:34.906Z,4.35
2022-09-28T07:02:02.038Z,4.15
2022-09-28T07:04:44.543Z,3.38
2022-09-28T07:07:43.011Z,4.90
2022-09-28T07:10:36.442Z,4.63
2022-09-28T07:16:15.629Z,4.55
2022-09-28T07:18:42.578Z,4.75
2022-09-28T07:21:18.079Z,5.35
2022-09-28T07:23:53.722Z,5.45
2022-09-28T07:26:45.505Z,5.05
2022-09-28T07:29:21.193Z,5.75
2022-09-28T07:32:21.696Z,7.53
2022-09-28T07:35:17.967Z,8.27
2022-09-28T07:38:01.739Z,9.18
2022-09-28T07:40:48.687Z,9.02
2022-09-28T07:43:20.648Z,10.40
2022-09-28T07:45:54.294Z,10.82
2022-09-28T07:48:21.832Z,11.73
2022-09-28T07:51:09.267Z,11.88
2022-09-28T07:53:41.670Z,12.35
2022-09-28T07:56:21.431Z,12.32
2022-09-28T07:58:54.709Z,11.32
2022-09-28T08:01:42.410Z,12.10
2022-09-28T08:04:12.323Z,12.85
2022-09-28T08:06:41.415Z,10.15
2022-09-28T08:09:10.891Z,11.27
2022-09-28T08:11:59.670Z,11.98
2022-09-28T08:14:46.782Z,10.95
2022-09-28T08:17:32.377Z,11.15
2022-09-28T08:20:19.296Z,9.85
2022-09-28T08:22:46.541Z,10.27
2022-09-28T08:25:13.433Z,10.13
2022-09-28T08:27:40.360Z,9.10
2022-09-28T08:30:08.161Z,8.93
2022-09-28T08:32:50.982Z,8.75
2022-09-28T08:35:47.374Z,7.75
2022-09-28T08:38:18.537Z,6.93
2022-09-28T08:41:22.577Z,6.05
2022-09-28T08:44:24.665Z,5.45
2022-09-28T08:47:46.338Z,6.47
2022-09-28T08:50:32.070Z,5.30
2022-09-28T08:59:39.375Z,4.45
2022-09-28T09:11:30.303Z,3.70
2022-09-28T09:14:01.287Z,3.00
2022-09-28T09:17:00.650Z,2.40
2022-09-28T09:19:57.252Z,2.47
2022-09-28T09:22:53.316Z,2.63
2022-09-28T09:25:38.814Z,2.20
2022-09-28T09:28:27.176Z,2.63
2022-09-28T09:31:02.994Z,2.90
2022-09-28T09:33:56.417Z,2.65
2022-09-28T09:37:13.954Z,2.50
2022-09-28T09:39:58.847Z,2.75
2022-09-28T09:42:50.258Z,2.90
2022-09-28T09:46:04.005Z,2.28
2022-09-28T09:48:47.496Z,3.47
2022-09-28T09:51:26.608Z,3.10
2022-09-28T09:54:02.029Z,3.15
2022-09-28T10:00:25.801Z,2.55
2022-09-28T10:03:06.127Z,2.95
2022-09-28T10:05:43.768Z,2.45
2022-09-28T10:08:17.953Z,2.30
2022-09-28T10:10:49.800Z,2.10
2022-09-28T10:13:19.118Z,2.78
2022-09-28T10:15:51.305Z,1.88
2022-09-28T10:18:38.967Z,2.17
2022-09-28T10:21:25.410Z,2.55
2022-09-28T10:24:18.743Z,2.58
2022-09-28T10:26:50.898Z,2.53
2022-09-28T10:29:22.290Z,2.20
2022-09-28T10:31:54.637Z,2.28
2022-09-28T10:34:35.602Z,1.90
2022-09-28T10:37:16.985Z,1.98
2022-09-28T10:39:57.253Z,1.90
2022-09-28T10:42:30.253Z,1.67
2022-09-28T10:45:23.428Z,1.70
2022-09-28T10:47:51.228Z,2.08
2022-09-28T10:50:28.423Z,1.30
2022-09-28T10:53:20.506Z,1.55
2022-09-28T10:56:20.050Z,1.45
2022-09-28T10:58:48.874Z,2.25
2022-09-28T11:01:31.238Z,1.20
2022-09-28T11:04:01.699Z,1.45
2022-09-28T11:06:30.355Z,1.75
2022-09-28T11:09:01.128Z,1.48
2022-09-28T11:11:32.156Z,1.77
2022-09-28T11:14:04.336Z,1.30
2022-09-28T11:16:36.892Z,1.38
2022-09-28T11:19:20.739Z,2.05
2022-09-28T11:21:49.014Z,1.70
2022-09-28T11:24:23.277Z,1.30
2022-09-28T11:27:00.046Z,0.90
2022-09-28T11:29:42.008Z,1.10
2022-09-28T11:32:44.439Z,1.00
2022-09-28T11:35:23.503Z,1.13
2022-09-28T11:38:22.470Z,0.80
2022-09-28T11:41:38.020Z,1.15
2022-09-28T11:44:34.477Z,1.00
2022-09-28T11:47:28.706Z,1.08
2022-09-28T11:50:22.883Z,1.20
2022-09-28T11:53:10.096Z,1.10
2022-09-28T11:55:47.312Z,0.95
2022-09-28T11:58:37.906Z,1.20
2022-09-28T12:01:37.029Z,1.35
2022-09-28T12:04:40.776Z,1.00
2022-09-28T12:07:25.291Z,0.95
2022-09-28T12:10:16.558Z,1.17
2022-09-28T12:12:52.746Z,1.23
2022-09-28T12:15:24.018Z,1.25
2022-09-28T12:18:00.365Z,0.98
2022-09-28T12:20:32.048Z,0.90
2022-09-28T12:23:14.386Z,0.90
2022-09-28T12:25:47.071Z,0.77
2022-09-28T12:28:46.161Z,0.90
2022-09-28T12:31:38.140Z,0.88
2022-09-28T12:34:05.929Z,0.68
2022-09-28T12:36:57.203Z,0.50
2022-09-28T12:39:56.365Z,0.70
2022-09-28T12:42:47.901Z,0.40
2022-09-28T12:45:18.962Z,0.40
2022-09-28T12:47:51.689Z,0.73
2022-09-28T12:51:03.721Z,0.50
2022-09-28T12:53:44.374Z,0.83
2022-09-28T12:56:16.782Z,0.60
2022-09-28T12:59:20.871Z,0.50
2022-09-28T13:02:08.456Z,0.47
2022-09-28T13:04:46.084Z,0.60
2022-09-28T13:07:31.825Z,0.70
2022-09-28T13:10:14.678Z,0.82
2022-09-28T13:13:01.870Z,0.50
2022-09-28T13:15:38.784Z,0.75
2022-09-28T13:18:15.687Z,0.70
2022-09-28T13:21:24.251Z,0.60
2022-09-28T13:24:00.828Z,0.68
2022-09-28T13:26:45.124Z,1.15
2022-09-28T13:29:16.335Z,1.00
2022-09-28T13:31:54.989Z,1.30
2022-09-28T13:34:31.914Z,1.10
2022-09-28T13:37:21.772Z,1.13
2022-09-28T13:39:52.903Z,1.05
2022-09-28T13:42:22.990Z,1.00
2022-09-28T13:45:21.973Z,1.15
2022-09-28T13:47:54.370Z,1.70
2022-09-28T13:53:19.761Z,1.10
2022-09-28T13:56:26.627Z,0.73
2022-09-28T13:59:09.062Z,0.90
2022-09-28T14:01:40.879Z,1.10
2022-09-28T14:04:21.017Z,1.25
2022-09-28T14:06:53.555Z,1.13
2022-09-28T14:10:07.284Z,1.10
2022-09-28T14:12:34.276Z,1.40
2022-09-28T14:15:02.350Z,1.10
2022-09-28T14:17:53.038Z,1.20
2022-09-28T14:20:23.476Z,1.70
2022-09-28T14:23:09.442Z,1.30
2022-09-28T14:26:00.006Z,1.65
2022-09-28T14:28:44.197Z,1.52
2022-09-28T14:31:24.327Z,1.50
2022-09-28T14:34:03.354Z,1.65
2022-09-28T14:37:00.516Z,1.85
2022-09-28T14:39:52.718Z,1.70
2022-09-28T14:42:23.177Z,1.92
2022-09-28T14:45:06.157Z,2.08
2022-09-28T14:47:42.224Z,2.45
2022-09-28T14:50:26.425Z,1.90
2022-09-28T14:53:04.237Z,2.13
2022-09-28T14:55:50.266Z,2.17
2022-09-28T14:58:27.443Z,1.75
2022-09-28T15:01:01.166Z,2.20
2022-09-28T15:03:32.805Z,1.77
2022-09-28T15:05:59.831Z,2.30
2022-09-28T15:08:36.327Z,2.63
2022-09-28T15:11:03.741Z,2.08
2022-09-28T15:13:30.701Z,2.35
2022-09-28T15:16:12.319Z,1.50
2022-09-28T15:19:19.543Z,1.40
2022-09-28T15:21:48.715Z,1.60
2022-09-28T15:24:34.222Z,1.20
2022-09-28T15:27:03.980Z,1.50
2022-09-28T15:29:33.583Z,1.30
2022-09-28T15:32:00.815Z,1.50
2022-09-28T15:34:51.968Z,1.20
2022-09-28T15:37:32.996Z,1.33
2022-09-28T15:40:01.484Z,1.35
2022-09-28T15:42:36.215Z,1.02
2022-09-28T15:45:30.903Z,1.70
2022-09-28T15:48:24.543Z,1.75
2022-09-28T15:50:59.574Z,2.03
2022-09-28T15:53:27.465Z,2.15
2022-09-28T15:56:01.932Z,2.10
2022-09-28T15:58:29.057Z,1.80
2022-09-28T16:01:23.258Z,3.22
2022-09-28T16:03:50.312Z,2.78
2022-09-28T16:06:17.193Z,1.85
2022-09-28T16:08:49.100Z,2.15
2022-09-28T16:11:38.504Z,0.98
2022-09-28T16:14:18.336Z,0.93
2022-09-28T16:16:49.749Z,0.90
2022-09-28T16:19:31.444Z,0.97
2022-09-28T16:22:03.763Z,1.00
2022-09-28T16:24:36.521Z,0.82
2022-09-28T16:27:22.971Z,1.00
2022-09-28T16:30:24.172Z,1.05
2022-09-28T16:32:58.460Z,0.90
2022-09-28T16:35:40.154Z,1.10
2022-09-28T16:38:14.868Z,1.48
2022-09-28T16:40:50.667Z,1.17
2022-09-28T16:43:19.679Z,0.88
2022-09-28T16:45:46.978Z,1.73
2022-09-28T16:48:19.427Z,4.60
2022-09-28T16:50:47.748Z,4.22
2022-09-28T16:53:35.139Z,4.88
2022-09-28T16:56:03.900Z,5.57
2022-09-28T16:58:31.888Z,4.90
2022-09-28T17:01:00.201Z,3.13
2022-09-28T17:03:28.586Z,1.92
2022-09-28T17:05:56.207Z,1.10
2022-09-28T17:08:25.032Z,1.02
2022-09-28T17:11:23.410Z,1.10
2022-09-28T17:13:49.198Z,1.20
2022-09-28T17:16:21.026Z,1.10
2022-09-28T17:18:52.266Z,1.10
2022-09-28T17:21:20.693Z,1.10
2022-09-28T17:23:49.522Z,1.00
2022-09-28T17:26:23.222Z,1.10
2022-09-28T17:28:50.273Z,1.85
2022-09-28T17:31:17.527Z,1.42
2022-09-28T17:33:45.020Z,1.70
2022-09-28T17:36:17.250Z,1.60
2022-09-28T17:41:19.361Z,1.40
2022-09-28T17:43:47.714Z,1.15
2022-09-28T17:46:34.835Z,1.30
2022-09-28T17:49:04.855Z,0.90
2022-09-28T17:51:34.792Z,1.13
2022-09-28T17:54:02.130Z,1.40
2022-09-28T17:56:32.524Z,3.85
2022-09-28T17:59:05.023Z,1.95
2022-09-28T18:01:36.073Z,1.70
2022-09-28T18:04:05.051Z,1.60
2022-09-28T18:06:36.186Z,1.50
2022-09-28T18:09:04.627Z,1.77
2022-09-28T18:11:32.505Z,2.03
2022-09-28T18:13:59.969Z,1.70
2022-09-28T18:16:29.958Z,1.90
2022-09-28T18:18:58.540Z,1.55
2022-09-28T18:21:25.721Z,1.83
2022-09-28T18:23:52.880Z,1.83
2022-09-28T18:26:20.200Z,2.75
2022-09-28T18:28:47.538Z,6.32
2022-09-28T18:31:15.613Z,7.30
2022-09-28T18:33:43.339Z,6.00
2022-09-28T18:36:10.493Z,5.80
2022-09-28T18:38:38.525Z,3.25
2022-09-28T18:41:15.822Z,2.78
2022-09-28T18:43:50.280Z,3.28
2022-09-28T18:46:18.382Z,3.35
2022-09-28T18:48:47.417Z,3.03
2022-09-28T18:51:14.692Z,2.42
2022-09-28T18:53:41.890Z,2.15
2022-09-28T18:56:10.845Z,1.90
2022-09-28T18:58:40.496Z,2.10
2022-09-28T19:04:00.743Z,2.25
2022-09-28T19:06:28.551Z,2.30
2022-09-28T19:08:56.349Z,2.38
2022-09-28T19:11:24.418Z,2.13
2022-09-28T19:13:53.309Z,2.20
2022-09-28T19:16:22.716Z,1.90
2022-09-28T19:18:51.407Z,1.70
2022-09-28T19:21:18.326Z,1.50
2022-09-28T19:23:49.289Z,1.90
2022-09-28T19:26:20.947Z,1.63
2022-09-28T19:28:48.561Z,1.37
2022-09-28T19:31:16.288Z,1.67
2022-09-28T19:33:44.566Z,1.55
2022-09-28T19:36:14.468Z,1.95
2022-09-28T19:38:42.292Z,1.65
2022-09-28T19:41:10.241Z,1.50
2022-09-28T19:43:38.301Z,2.00
2022-09-28T19:46:07.158Z,1.75
2022-09-28T19:48:35.404Z,2.45
2022-09-28T19:51:05.121Z,3.85
2022-09-28T19:53:36.654Z,2.85
2022-09-28T19:56:05.555Z,2.88
2022-09-28T19:58:36.191Z,2.60
2022-09-28T20:01:07.226Z,3.08
2022-09-28T20:03:34.834Z,3.10
2022-09-28T20:06:02.552Z,2.90
2022-09-28T20:08:32.589Z,2.85
2022-09-28T20:11:00.663Z,3.10
2022-09-28T20:13:36.221Z,3.70
2022-09-28T20:16:09.276Z,3.22
2022-09-28T20:18:39.548Z,3.55
2022-09-28T20:21:09.552Z,3.22
2022-09-28T20:23:36.830Z,3.30
2022-09-28T20:26:04.902Z,3.40
2022-09-28T20:28:32.954Z,3.70
2022-09-28T20:31:07.734Z,3.58
2022-09-28T20:33:36.236Z,3.35
2022-09-28T20:36:08.270Z,3.42
2022-09-28T20:38:38.409Z,3.63
2022-09-28T20:41:09.285Z,3.88
2022-09-28T20:43:36.665Z,3.88
2022-09-28T20:46:06.489Z,3.40
2022-09-28T20:48:33.806Z,4.18
2022-09-28T20:51:03.384Z,4.45
2022-09-28T20:53:31.497Z,4.60
2022-09-28T20:56:03.407Z,4.18
2022-09-28T20:58:31.044Z,4.53
2022-09-28T21:01:12.578Z,4.28
2022-09-28T21:03:39.781Z,7.20
2022-09-28T21:06:11.537Z,11.70
2022-09-28T21:08:39.433Z,9.45
2022-09-28T21:11:07.685Z,6.25
2022-09-28T21:13:35.052Z,5.85
2022-09-28T21:16:03.923Z,5.68
2022-09-28T21:18:31.342Z,5.13
2022-09-28T21:20:58.244Z,6.00
2022-09-28T21:23:25.327Z,6.97
2022-09-28T21:26:05.324Z,5.88
2022-09-28T21:28:32.684Z,5.88
2022-09-28T21:31:00.264Z,6.43
2022-09-28T21:33:27.580Z,5.88
2022-09-28T21:35:54.653Z,7.28
2022-09-28T21:38:21.677Z,7.78
2022-09-28T21:40:53.968Z,8.10
2022-09-28T21:43:20.997Z,8.23
2022-09-28T21:45:54.832Z,8.05
2022-09-28T21:48:23.613Z,7.63
2022-09-28T21:50:58.440Z,7.47
2022-09-28T21:53:28.112Z,7.28
2022-09-28T21:55:56.163Z,7.45
2022-09-28T21:58:25.800Z,6.47
2022-09-28T22:00:58.217Z,6.35
2022-09-28T22:03:26.016Z,7.10
2022-09-28T22:05:52.876Z,7.18
2022-09-28T22:08:20.798Z,6.78
2022-09-28T22:11:17.522Z,7.40
2022-09-28T22:13:46.696Z,7.15
2022-09-28T22:16:15.660Z,6.88
2022-09-28T22:18:42.816Z,6.68
2022-09-28T22:21:41.900Z,6.75
2022-09-28T22:24:09.668Z,6.55
2022-09-28T22:26:37.896Z,6.90
2022-09-28T22:29:09.554Z,7.00
2022-09-28T22:31:39.133Z,7.70
2022-09-28T22:34:07.117Z,7.20
2022-09-28T22:36:34.189Z,7.88
2022-09-28T22:39:01.240Z,6.90
2022-09-28T22:41:28.477Z,6.65
2022-09-28T22:43:55.900Z,6.75
2022-09-28T22:46:28.640Z,7.10
2022-09-28T22:48:57.750Z,6.90
2022-09-28T22:51:26.405Z,7.68
2022-09-28T22:53:53.721Z,7.10
2022-09-28T22:56:20.801Z,7.63
2022-09-28T22:58:47.852Z,6.68
2022-09-28T23:01:23.384Z,6.80
2022-09-28T23:03:51.657Z,7.65
2022-09-28T23:06:22.127Z,6.93
2022-09-28T23:08:50.448Z,7.05
2022-09-28T23:11:17.985Z,7.60
2022-09-28T23:13:56.250Z,6.68
2022-09-28T23:16:25.586Z,6.88
2022-09-28T23:18:54.477Z,7.25
2022-09-28T23:21:24.532Z,7.57
2022-09-28T23:24:03.857Z,8.05
2022-09-28T23:26:32.728Z,7.63
2022-09-28T23:29:00.493Z,7.38
2022-09-28T23:31:30.365Z,7.25
2022-09-28T23:33:59.769Z,7.15
2022-09-28T23:36:27.353Z,7.78
2022-09-28T23:38:54.582Z,7.95
2022-09-28T23:41:21.886Z,7.57
2022-09-28T23:43:48.815Z,8.00
2022-09-28T23:46:20.478Z,7.05
2022-09-28T23:48:48.589Z,7.18
2022-09-28T23:51:15.503Z,7.15
2022-09-28T23:53:43.356Z,7.32
2022-09-28T23:56:10.563Z,7.93
2022-09-28T23:58:37.988Z,7.93
